Time;durP1;ratioP1;P1;durP2;ratioP2;P2;SDS_P1;SDS_P2;PMS_P1;PMS_P2;Temp;Humidity;BMP_temperature;BMP_pressure;BME280_temperature;BME280_humidity;BME280_pressure;Samples;Min_cycle;Max_cycle;Signal;HPM_P1;HPM_P2
2022/12/06 00:00:24;;;;;;;13.38;5.97;;;5.70;99.90;;;;;;5046753;28;20053;-71
2022/12/06 00:02:50;;;;;;;11.10;5.22;;;5.70;99.90;;;;;;5036470;28;20140;-72
2022/12/06 00:05:15;;;;;;;14.13;6.32;;;5.70;99.90;;;;;;5029728;28;20124;-72
2022/12/06 00:07:41;;;;;;;11.73;5.22;;;5.70;99.90;;;;;;5029948;28;20045;-71
2022/12/06 00:10:07;;;;;;;11.27;4.28;;;5.80;99.90;;;;;;5033539;28;20042;-69
2022/12/06 00:12:32;;;;;;;10.00;5.03;;;5.80;99.90;;;;;;5048012;28;20037;-70
2022/12/06 00:14:58;;;;;;;8.77;3.83;;;5.80;99.90;;;;;;5034357;28;20049;-71
2022/12/06 00:17:23;;;;;;;10.75;5.65;;;5.80;99.90;;;;;;5025650;28;20030;-71
2022/12/06 00:19:49;;;;;;;7.78;3.75;;;5.70;99.90;;;;;;5038690;28;20037;-71
2022/12/06 00:22:15;;;;;;;12.38;4.82;;;5.70;99.90;;;;;;5010814;28;20042;-71
2022/12/06 00:24:40;;;;;;;12.50;5.15;;;5.70;99.90;;;;;;5036947;28;20178;-71
2022/12/06 00:27:06;;;;;;;10.55;4.90;;;5.70;99.90;;;;;;5050939;28;20037;-72
2022/12/06 00:29:31;;;;;;;13.07;5.32;;;5.70;99.90;;;;;;5044402;28;20037;-71
2022/12/06 00:31:57;;;;;;;11.90;5.30;;;5.70;99.90;;;;;;5031498;28;20049;-70
2022/12/06 00:34:23;;;;;;;10.90;5.63;;;5.70;99.90;;;;;;5047907;28;20044;-72
2022/12/06 00:36:48;;;;;;;11.20;4.95;;;5.70;99.90;;;;;;5045959;28;20116;-69
2022/12/06 00:39:16;;;;;;;10.32;4.93;;;5.70;99.90;;;;;;5032380;28;20117;-69
2022/12/06 00:41:42;;;;;;;7.75;4.10;;;5.70;99.90;;;;;;5053595;28;20052;-70
2022/12/06 00:44:08;;;;;;;8.07;4.70;;;5.70;99.90;;;;;;5053203;28;20495;-69
2022/12/06 00:46:35;;;;;;;11.25;4.90;;;5.70;99.90;;;;;;5053038;28;20045;-72
2022/12/06 00:49:03;;;;;;;8.48;3.70;;;5.70;99.90;;;;;;5030716;28;20044;-69
2022/12/06 00:51:30;;;;;;;7.82;4.20;;;5.70;99.90;;;;;;5053147;28;20029;-69
2022/12/06 00:53:57;;;;;;;11.90;4.95;;;5.70;99.90;;;;;;5042756;28;20041;-69
2022/12/06 00:56:23;;;;;;;11.40;4.65;;;5.70;99.90;;;;;;5035284;28;20048;-69
2022/12/06 00:58:49;;;;;;;10.23;5.47;;;5.70;99.90;;;;;;5053723;28;20048;-69
2022/12/06 01:01:19;;;;;;;11.40;5.35;;;5.70;99.90;;;;;;5052606;28;20041;-71
2022/12/06 01:03:45;;;;;;;12.82;5.03;;;5.70;99.90;;;;;;5037546;28;20047;-71
2022/12/06 01:06:13;;;;;;;14.45;5.57;;;5.70;99.90;;;;;;5048018;28;20046;-71
2022/12/06 01:08:40;;;;;;;12.45;5.10;;;5.70;99.90;;;;;;5054290;28;20047;-71
2022/12/06 01:11:06;;;;;;;11.98;4.72;;;5.70;99.90;;;;;;5033095;28;20435;-71
2022/12/06 01:13:32;;;;;;;13.27;4.82;;;5.70;99.90;;;;;;5027936;28;20040;-69
2022/12/06 01:16:04;;;;;;;11.25;4.70;;;5.70;99.90;;;;;;5053776;28;20048;-69
2022/12/06 01:18:30;;;;;;;12.75;4.88;;;5.60;99.90;;;;;;5053926;28;20033;-69
2022/12/06 01:20:55;;;;;;;11.77;5.05;;;5.60;99.90;;;;;;5041538;28;20406;-69
2022/12/06 01:23:21;;;;;;;9.30;5.25;;;5.60;99.90;;;;;;5043993;28;20048;-69
2022/12/06 01:25:51;;;;;;;13.80;5.38;;;5.60;99.90;;;;;;5053293;28;20053;-70
2022/12/06 01:28:16;;;;;;;10.82;4.70;;;5.60;99.90;;;;;;5032502;28;20618;-70
2022/12/06 01:30:42;;;;;;;15.40;5.30;;;5.60;99.90;;;;;;5047030;28;20124;-69
2022/12/06 01:33:08;;;;;;;13.27;5.45;;;5.60;99.90;;;;;;5052103;28;20121;-69
2022/12/06 01:35:39;;;;;;;10.15;5.05;;;5.60;99.90;;;;;;5052482;28;20110;-69
2022/12/06 01:38:04;;;;;;;14.13;4.50;;;5.60;99.90;;;;;;5017449;28;20041;-69
2022/12/06 01:40:41;;;;;;;11.70;4.65;;;5.60;99.90;;;;;;5035869;28;20451;-69
2022/12/06 01:43:42;;;;;;;10.15;4.28;;;5.60;99.90;;;;;;5053081;28;20068;-69
2022/12/06 01:46:29;;;;;;;12.38;4.50;;;5.60;99.90;;;;;;5035190;28;20411;-69
2022/12/06 01:49:21;;;;;;;9.95;4.63;;;5.60;99.90;;;;;;5051585;28;20127;-69
2022/12/06 01:51:48;;;;;;;;;;;5.60;99.90;;;;;;5029882;28;20101;-69
2022/12/06 01:54:15;;;;;;;12.25;3.60;;;5.60;99.90;;;;;;5046219;28;20441;-70
2022/12/06 01:56:41;;;;;;;10.90;4.03;;;5.60;99.90;;;;;;5052069;28;20056;-69
2022/12/06 01:59:09;;;;;;;12.20;4.05;;;5.60;99.90;;;;;;5051828;28;20045;-69
2022/12/06 02:01:35;;;;;;;15.60;4.63;;;5.60;99.90;;;;;;5034142;28;20151;-69
2022/12/06 02:04:01;;;;;;;10.75;4.05;;;5.60;99.90;;;;;;5043448;28;20045;-69
2022/12/06 02:06:29;;;;;;;13.48;4.25;;;5.60;99.90;;;;;;5051136;28;20033;-69
2022/12/06 02:08:58;;;;;;;10.75;3.92;;;5.60;99.90;;;;;;5027856;28;20073;-69
2022/12/06 02:11:23;;;;;;;12.27;3.95;;;5.60;99.90;;;;;;5046402;28;20045;-69
2022/12/06 02:13:49;;;;;;;9.75;4.28;;;5.60;99.90;;;;;;5046475;28;20064;-69
2022/12/06 02:16:21;;;;;;;12.75;4.15;;;5.60;99.90;;;;;;5029042;28;20091;-70
2022/12/06 02:19:22;;;;;;;10.65;4.30;;;5.60;99.90;;;;;;5030725;28;20033;-69
2022/12/06 02:22:16;;;;;;;13.98;4.28;;;5.60;99.90;;;;;;5004357;28;20047;-69
2022/12/06 02:24:58;;;;;;;8.85;4.20;;;5.70;99.90;;;;;;5050273;28;20033;-72
2022/12/06 02:27:30;;;;;;;10.40;3.70;;;5.60;99.90;;;;;;5029903;28;20104;-68
2022/12/06 02:30:10;;;;;;;;;;;5.60;99.90;;;;;;5051533;28;20120;-67
2022/12/06 02:33:03;;;;;;;8.82;4.07;;;5.70;99.90;;;;;;5050939;28;19927;-67
2022/12/06 02:35:40;;;;;;;6.72;3.17;;;5.60;99.90;;;;;;5026386;28;20045;-67
2022/12/06 02:38:14;;;;;;;9.13;3.22;;;5.60;99.90;;;;;;5044220;28;20041;-67
2022/12/06 02:40:57;;;;;;;6.35;3.50;;;5.60;99.90;;;;;;5011415;28;20050;-70
2022/12/06 02:43:30;;;;;;;9.13;3.33;;;5.60;99.90;;;;;;5014812;28;20044;-70
2022/12/06 02:45:59;;;;;;;5.60;3.13;;;5.60;99.90;;;;;;5040385;28;20059;-69
2022/12/06 02:48:25;;;;;;;5.57;3.15;;;5.60;99.90;;;;;;5051876;28;20549;-68
2022/12/06 02:51:00;;;;;;;8.60;3.03;;;5.60;99.90;;;;;;5037311;28;20041;-69
2022/12/06 02:53:29;;;;;;;7.22;3.50;;;5.50;99.90;;;;;;5026032;28;20041;-69
2022/12/06 02:55:56;;;;;;;6.78;2.90;;;5.50;99.90;;;;;;5050376;28;20045;-69
2022/12/06 02:58:22;;;;;;;7.60;3.10;;;5.50;99.90;;;;;;5043050;28;20034;-69
2022/12/06 03:00:58;;;;;;;5.50;2.95;;;5.50;99.90;;;;;;5041017;28;20048;-69
2022/12/06 03:03:57;;;;;;;7.28;2.97;;;5.50;99.90;;;;;;5051178;28;20056;-69
2022/12/06 03:06:53;;;;;;;9.05;3.00;;;5.50;99.90;;;;;;5038042;28;20128;-69
2022/12/06 03:09:46;;;;;;;7.00;2.92;;;5.50;99.90;;;;;;5032873;28;20049;-69
2022/12/06 03:12:15;;;;;;;8.95;2.88;;;5.50;99.90;;;;;;5051164;28;20041;-69
2022/12/06 03:14:58;;;;;;;6.80;3.08;;;5.50;99.90;;;;;;5034257;28;20503;-69
2022/12/06 03:17:34;;;;;;;7.10;2.75;;;5.40;99.90;;;;;;5028699;28;20092;-70
2022/12/06 03:20:08;;;;;;;6.78;3.10;;;5.50;99.90;;;;;;5051580;28;20203;-69
2022/12/06 03:22:43;;;;;;;7.88;3.25;;;5.40;99.90;;;;;;5050456;28;20132;-67
2022/12/06 03:25:09;;;;;;;7.38;3.40;;;5.50;99.90;;;;;;5021199;28;20069;-67
2022/12/06 03:27:37;;;;;;;6.80;2.85;;;5.50;99.90;;;;;;5044650;28;20048;-67
2022/12/06 03:30:08;;;;;;;7.68;2.60;;;5.40;99.90;;;;;;5041936;28;20116;-67
2022/12/06 03:32:37;;;;;;;5.32;2.70;;;5.40;99.90;;;;;;5028158;28;20045;-67
2022/12/06 03:35:08;;;;;;;5.90;2.22;;;5.40;99.90;;;;;;5040894;28;20045;-67
2022/12/06 03:37:36;;;;;;;6.80;2.90;;;5.40;99.90;;;;;;5051367;28;20091;-68
2022/12/06 03:40:19;;;;;;;9.60;3.20;;;5.40;99.90;;;;;;5040916;28;20486;-69
2022/12/06 03:42:47;;;;;;;7.07;3.10;;;5.40;99.90;;;;;;5023094;28;20052;-67
2022/12/06 03:45:13;;;;;;;5.32;2.25;;;5.40;99.90;;;;;;5039939;28;20446;-69
2022/12/06 03:47:56;;;;;;;6.55;2.72;;;5.30;99.90;;;;;;5051620;28;20045;-68
2022/12/06 03:50:50;;;;;;;4.22;2.42;;;5.30;99.90;;;;;;5028975;28;20133;-67
2022/12/06 03:53:17;;;;;;;5.07;2.58;;;5.30;99.90;;;;;;5023082;28;20053;-67
2022/12/06 03:55:44;;;;;;;4.85;2.40;;;5.30;99.90;;;;;;5049559;28;20047;-67
2022/12/06 03:58:10;;;;;;;4.60;2.50;;;5.30;99.90;;;;;;5029183;28;20096;-67
2022/12/06 04:00:36;;;;;;;5.47;2.17;;;5.20;99.90;;;;;;5046926;28;20414;-67
2022/12/06 04:03:01;;;;;;;5.05;2.70;;;5.20;99.90;;;;;;5049855;28;20048;-67
2022/12/06 04:05:27;;;;;;;8.57;2.58;;;5.20;99.90;;;;;;5036033;28;20040;-67
2022/12/06 04:07:52;;;;;;;5.75;2.40;;;5.20;99.90;;;;;;5034133;28;20072;-70
2022/12/06 04:10:18;;;;;;;7.00;2.47;;;5.20;99.90;;;;;;5049679;28;20040;-70
2022/12/06 04:13:02;;;;;;;4.25;2.20;;;5.10;99.90;;;;;;5050802;28;20037;-69
2022/12/06 04:15:37;;;;;;;6.40;2.50;;;5.20;99.90;;;;;;5022261;28;20037;-70
2022/12/06 04:18:12;;;;;;;4.18;2.13;;;5.10;99.90;;;;;;5045892;28;20540;-70
2022/12/06 04:23:29;;;;;;;7.05;2.10;;;5.10;99.90;;;;;;5021153;28;20087;-69
2022/12/06 04:25:55;;;;;;;6.57;2.25;;;5.00;99.90;;;;;;5048945;28;20037;-70
2022/12/06 04:39:19;;;;;;;6.97;2.65;;;4.90;99.90;;;;;;5054860;28;20098;-70
2022/12/06 04:44:29;;;;;;;5.65;2.60;;;4.90;99.90;;;;;;5053743;28;20545;-70
2022/12/06 04:46:55;;;;;;;6.65;2.65;;;4.90;99.90;;;;;;5049661;28;20044;-70
2022/12/06 04:49:20;;;;;;;9.10;3.15;;;4.90;99.90;;;;;;5028375;28;20088;-70
2022/12/06 04:51:46;;;;;;;5.30;2.67;;;4.90;99.90;;;;;;5036582;28;20042;-70
2022/12/06 04:54:11;;;;;;;7.05;2.80;;;4.90;99.90;;;;;;5047853;28;20060;-70
2022/12/06 04:56:37;;;;;;;8.70;3.03;;;4.80;99.90;;;;;;5054220;28;20449;-67
2022/12/06 04:59:03;;;;;;;6.30;2.90;;;4.90;99.90;;;;;;5034468;28;20037;-69
2022/12/06 05:01:28;;;;;;;6.03;3.00;;;4.90;99.90;;;;;;5052592;28;20028;-70
2022/12/06 05:03:54;;;;;;;6.72;2.90;;;4.90;99.90;;;;;;5043352;28;20053;-70
2022/12/06 05:06:20;;;;;;;6.75;3.05;;;4.90;99.90;;;;;;5029107;28;20038;-70
2022/12/06 05:08:45;;;;;;;9.40;3.00;;;4.90;99.90;;;;;;5034176;28;20052;-70
2022/12/06 05:11:11;;;;;;;7.03;3.17;;;4.90;99.90;;;;;;5048520;28;20045;-70
2022/12/06 05:13:36;;;;;;;8.05;3.40;;;4.90;99.90;;;;;;5049472;28;20069;-69
2022/12/06 05:16:04;;;;;;;7.65;3.28;;;4.90;99.90;;;;;;5027203;28;20094;-70
2022/12/06 05:18:30;;;;;;;8.88;3.50;;;4.90;99.90;;;;;;5032190;28;20029;-70
2022/12/06 05:21:09;;;;;;;7.95;3.15;;;4.90;99.90;;;;;;5035901;28;20046;-70
2022/12/06 05:23:35;;;;;;;6.60;3.08;;;4.90;99.90;;;;;;5022919;28;20037;-69
2022/12/06 05:26:03;;;;;;;6.97;3.33;;;4.90;99.90;;;;;;5052299;28;20044;-70
2022/12/06 05:28:29;;;;;;;6.75;3.10;;;4.90;99.90;;;;;;5053455;28;20080;-69
2022/12/06 05:30:56;;;;;;;8.35;3.40;;;4.90;99.90;;;;;;5037121;28;20052;-70
2022/12/06 05:33:23;;;;;;;8.32;3.60;;;4.80;99.90;;;;;;5042177;28;20081;-70
2022/12/06 05:35:49;;;;;;;11.95;3.75;;;4.90;99.90;;;;;;5052184;28;20033;-68
2022/12/06 05:38:15;;;;;;;10.50;3.72;;;4.90;99.90;;;;;;5039096;28;20098;-68
2022/12/06 05:40:42;;;;;;;9.98;3.90;;;4.90;99.90;;;;;;5050443;28;20033;-68
2022/12/06 05:43:08;;;;;;;10.77;3.85;;;4.90;99.90;;;;;;5051610;28;20047;-69
2022/12/06 05:45:34;;;;;;;10.10;3.47;;;4.80;99.90;;;;;;5038282;28;20045;-69
2022/12/06 05:48:00;;;;;;;6.70;3.78;;;4.80;99.90;;;;;;5017906;28;20123;-70
2022/12/06 05:50:25;;;;;;;7.65;3.78;;;4.80;99.90;;;;;;5050498;28;20084;-69
2022/12/06 05:52:56;;;;;;;8.77;3.83;;;4.80;99.90;;;;;;5033299;28;20038;-68
2022/12/06 05:55:22;;;;;;;10.95;3.90;;;4.80;99.90;;;;;;5022401;28;20045;-68
2022/12/06 05:57:48;;;;;;;9.93;3.95;;;4.80;99.90;;;;;;5043200;28;20147;-67
2022/12/06 06:00:15;;;;;;;11.63;3.92;;;4.80;99.90;;;;;;5052445;28;20033;-68
2022/12/06 06:02:41;;;;;;;9.57;3.40;;;4.70;99.90;;;;;;5046390;28;20495;-68
2022/12/06 06:05:07;;;;;;;8.85;3.95;;;4.70;99.90;;;;;;5030495;28;20049;-68
2022/12/06 06:07:32;;;;;;;8.93;3.30;;;4.70;99.90;;;;;;5037196;28;20037;-68
2022/12/06 06:09:58;;;;;;;11.07;3.65;;;4.70;99.90;;;;;;5018779;28;20038;-67
2022/12/06 06:12:24;;;;;;;7.38;3.40;;;4.70;99.90;;;;;;5010118;28;20042;-68
2022/12/06 06:14:49;;;;;;;6.32;3.30;;;4.70;99.90;;;;;;5040233;28;20553;-68
2022/12/06 06:17:15;;;;;;;11.23;3.53;;;4.70;99.90;;;;;;5051840;28;20037;-69
2022/12/06 06:19:41;;;;;;;11.32;4.03;;;4.70;99.90;;;;;;5028116;28;20033;-68
2022/12/06 06:22:07;;;;;;;6.75;3.35;;;4.70;99.90;;;;;;5046270;28;20049;-68
2022/12/06 06:24:40;;;;;;;7.43;3.35;;;4.60;99.90;;;;;;5039374;28;20045;-70
2022/12/06 06:27:06;;;;;;;9.98;3.53;;;4.60;99.90;;;;;;5006100;28;20479;-67
2022/12/06 06:29:32;;;;;;;8.10;3.65;;;4.60;99.90;;;;;;5038298;28;20044;-68
2022/12/06 06:31:58;;;;;;;8.60;3.85;;;4.60;99.90;;;;;;5049705;28;20044;-68
2022/12/06 06:34:25;;;;;;;6.82;3.28;;;4.60;99.90;;;;;;5051337;28;20055;-68
2022/12/06 06:36:50;;;;;;;9.60;4.25;;;4.60;99.90;;;;;;5032055;28;20551;-68
2022/12/06 06:39:17;;;;;;;8.77;3.55;;;4.60;99.90;;;;;;5042374;28;20033;-68
2022/12/06 06:41:43;;;;;;;7.03;3.38;;;4.50;99.90;;;;;;5051341;28;20060;-68
2022/12/06 06:44:09;;;;;;;13.23;3.80;;;4.60;99.90;;;;;;5040983;28;20110;-68
2022/12/06 06:46:35;;;;;;;8.27;3.53;;;4.50;99.90;;;;;;5030036;28;20125;-67
2022/12/06 06:49:00;;;;;;;9.35;3.50;;;4.50;99.90;;;;;;5050078;28;20487;-67
2022/12/06 06:51:26;;;;;;;8.60;3.40;;;4.50;99.90;;;;;;5049034;28;20156;-69
2022/12/06 06:53:52;;;;;;;11.23;3.63;;;4.50;99.90;;;;;;5021006;28;20120;-68
2022/12/06 06:56:19;;;;;;;6.88;3.30;;;4.50;99.90;;;;;;5038418;28;20056;-71
2022/12/06 06:58:45;;;;;;;10.23;3.60;;;4.40;99.90;;;;;;5048545;28;20045;-69
2022/12/06 07:01:21;;;;;;;8.02;3.30;;;4.40;99.90;;;;;;5019148;28;20042;-70
2022/12/06 07:03:48;;;;;;;12.05;3.63;;;4.40;99.90;;;;;;5014705;28;21151;-67
2022/12/06 07:06:14;;;;;;;7.47;3.50;;;4.40;99.90;;;;;;5026132;28;20435;-69
2022/12/06 07:08:40;;;;;;;6.85;3.30;;;4.40;99.90;;;;;;5038974;28;20044;-68
2022/12/06 07:11:08;;;;;;;6.35;3.30;;;4.40;99.90;;;;;;5051688;28;20499;-68
2022/12/06 07:13:35;;;;;;;8.23;3.53;;;4.40;99.90;;;;;;5030961;28;20124;-68
2022/12/06 07:16:05;;;;;;;9.73;3.50;;;4.30;99.90;;;;;;5027323;28;20136;-68
2022/12/06 07:18:32;;;;;;;7.50;3.42;;;4.40;99.90;;;;;;5022241;28;20051;-68
2022/12/06 07:21:00;;;;;;;10.38;3.05;;;4.40;99.90;;;;;;5041392;28;20566;-68
2022/12/06 07:23:26;;;;;;;7.50;3.17;;;4.40;99.90;;;;;;5050957;28;20044;-69
2022/12/06 07:26:02;;;;;;;9.68;3.53;;;4.40;99.90;;;;;;5031668;28;20034;-68
2022/12/06 07:28:27;;;;;;;7.80;3.50;;;4.40;99.90;;;;;;5042722;28;20084;-68
2022/12/06 07:30:53;;;;;;;8.57;3.42;;;4.30;99.90;;;;;;5029837;28;20033;-68
2022/12/06 07:33:18;;;;;;;5.50;3.22;;;4.30;99.90;;;;;;5027010;28;20087;-68
2022/12/06 07:35:49;;;;;;;7.82;3.67;;;4.20;99.90;;;;;;5021213;28;20073;-68
2022/12/06 07:38:15;;;;;;;10.95;3.72;;;4.20;99.90;;;;;;5035895;28;20041;-69
2022/12/06 07:40:40;;;;;;;6.70;3.78;;;4.10;99.90;;;;;;5029604;28;20534;-70
2022/12/06 07:45:52;;;;;;;8.13;3.55;;;4.00;99.90;;;;;;5031127;28;20126;-64
2022/12/06 07:48:19;;;;;;;6.63;3.83;;;4.00;99.90;;;;;;5051080;28;20484;-65
2022/12/06 07:50:46;;;;;;;8.57;4.00;;;3.90;99.90;;;;;;5044168;28;20055;-65
2022/12/06 07:53:11;;;;;;;9.48;4.07;;;3.90;99.90;;;;;;5020126;28;20050;-65
2022/12/06 07:55:37;;;;;;;7.03;3.80;;;3.80;99.90;;;;;;5055056;28;20040;-65
2022/12/06 07:58:03;;;;;;;11.90;4.32;;;3.80;99.90;;;;;;5055585;28;20043;-64
2022/12/06 08:00:28;;;;;;;9.13;4.15;;;3.80;99.90;;;;;;5033932;28;20021;-65
2022/12/06 08:02:54;;;;;;;7.97;3.92;;;3.70;99.90;;;;;;5053068;28;20487;-65
2022/12/06 08:05:19;;;;;;;12.65;4.30;;;3.70;99.90;;;;;;5053799;28;20048;-67
2022/12/06 08:07:46;;;;;;;7.60;4.03;;;3.60;99.90;;;;;;5040035;28;20132;-69
2022/12/06 08:10:12;;;;;;;9.20;4.28;;;3.50;99.90;;;;;;5045376;28;20063;-67
2022/12/06 08:12:37;;;;;;;7.35;4.13;;;3.50;99.90;;;;;;5038842;28;20503;-67
2022/12/06 08:15:04;;;;;;;10.73;4.70;;;3.50;99.90;;;;;;5040150;28;20152;-68
2022/12/06 08:17:29;;;;;;;11.68;4.45;;;3.50;99.90;;;;;;5042826;28;20041;-66
2022/12/06 08:19:55;;;;;;;10.65;4.78;;;3.50;99.90;;;;;;5035116;28;20042;-67
2022/12/06 08:22:20;;;;;;;10.60;4.78;;;3.50;99.90;;;;;;5012354;28;20044;-65
2022/12/06 08:24:46;;;;;;;6.82;4.35;;;3.40;99.90;;;;;;5028581;28;20616;-65
2022/12/06 08:27:12;;;;;;;12.65;4.28;;;3.40;99.90;;;;;;5035988;28;20084;-66
2022/12/06 08:29:37;;;;;;;10.25;4.10;;;3.40;99.90;;;;;;5054421;28;20075;-65
2022/12/06 08:32:03;;;;;;;9.80;4.03;;;3.50;99.90;;;;;;5054360;28;20072;-65
2022/12/06 08:34:29;;;;;;;11.10;4.65;;;3.40;99.90;;;;;;5029871;28;20112;-65
2022/12/06 08:36:55;;;;;;;12.82;5.22;;;3.40;99.90;;;;;;5021949;28;20045;-68
2022/12/06 08:39:20;;;;;;;9.73;5.22;;;3.50;99.90;;;;;;5053086;28;20407;-68
2022/12/06 08:41:56;;;;;;;10.82;4.88;;;3.50;99.90;;;;;;5034175;28;20430;-67
2022/12/06 08:44:23;;;;;;;10.32;5.10;;;3.60;99.90;;;;;;5033729;28;20380;-69
2022/12/06 08:46:49;;;;;;;9.18;4.80;;;3.60;99.90;;;;;;5047042;28;20403;-71
2022/12/06 08:49:15;;;;;;;10.27;4.78;;;3.60;99.90;;;;;;5046870;28;20068;-71
2022/12/06 08:51:41;;;;;;;11.25;4.47;;;3.60;99.90;;;;;;5036438;28;20073;-69
2022/12/06 08:54:08;;;;;;;11.13;4.70;;;3.60;99.90;;;;;;5037110;28;20088;-69
2022/12/06 08:56:35;;;;;;;11.20;4.75;;;3.70;99.90;;;;;;5029883;28;20064;-71
2022/12/06 08:59:01;;;;;;;13.00;5.18;;;3.70;99.90;;;;;;5028262;28;20047;-71
2022/12/06 09:01:29;;;;;;;13.70;5.28;;;3.70;99.90;;;;;;5047139;28;20436;-70
2022/12/06 09:03:57;;;;;;;11.82;4.50;;;3.70;99.90;;;;;;5033830;28;20073;-71
2022/12/06 09:06:23;;;;;;;10.02;4.45;;;3.80;99.90;;;;;;5032828;28;20056;-70
2022/12/06 09:08:49;;;;;;;10.13;5.07;;;3.80;99.90;;;;;;5021874;28;20041;-71
2022/12/06 09:11:16;;;;;;;9.00;4.32;;;3.90;99.90;;;;;;5049786;28;20071;-71
2022/12/06 09:13:41;;;;;;;9.25;4.18;;;3.90;99.90;;;;;;5029838;28;20072;-70
2022/12/06 09:16:16;;;;;;;11.02;5.13;;;4.00;99.90;;;;;;5031226;28;20518;-70
2022/12/06 09:18:43;;;;;;;9.05;4.32;;;4.00;99.90;;;;;;5036253;28;20037;-70
2022/12/06 09:21:12;;;;;;;11.52;4.55;;;4.10;99.90;;;;;;5042111;22;20036;-70
2022/12/06 09:23:38;;;;;;;9.95;4.60;;;4.10;99.90;;;;;;5048055;28;20048;-71
2022/12/06 09:26:05;;;;;;;11.85;4.70;;;4.10;99.90;;;;;;5055770;28;20048;-70
2022/12/06 09:28:35;;;;;;;8.63;4.50;;;4.20;99.90;;;;;;5053213;28;20443;-70
2022/12/06 09:31:02;;;;;;;8.98;4.90;;;4.30;99.90;;;;;;5050797;28;20076;-70
2022/12/06 09:33:28;;;;;;;10.93;5.05;;;4.40;99.90;;;;;;5039802;28;20040;-71
2022/12/06 09:35:54;;;;;;;9.45;4.60;;;4.40;99.90;;;;;;5054269;28;20121;-70
2022/12/06 09:38:22;;;;;;;11.48;4.75;;;4.50;99.90;;;;;;5073263;28;20127;-71
2022/12/06 09:41:18;;;;;;;9.20;4.43;;;4.60;99.90;;;;;;5067213;28;20040;-70
2022/12/06 09:44:04;;;;;;;8.63;4.00;;;4.70;99.90;;;;;;5048517;28;20059;-71
2022/12/06 09:47:12;;;;;;;8.40;4.15;;;4.70;99.90;;;;;;5055397;28;20049;-71
2022/12/06 09:50:00;;;;;;;10.90;4.72;;;4.80;99.90;;;;;;5045527;28;20065;-72
2022/12/06 09:53:09;;;;;;;12.45;4.78;;;4.90;99.90;;;;;;5072821;28;20072;-71
2022/12/06 09:55:53;;;;;;;9.90;4.65;;;5.00;99.90;;;;;;5044304;28;20052;-72
2022/12/06 09:58:39;;;;;;;11.73;4.40;;;5.20;99.90;;;;;;5059626;28;20127;-72
2022/12/06 10:01:31;;;;;;;8.90;4.40;;;5.30;99.90;;;;;;5050080;28;20131;-71
2022/12/06 10:03:59;;;;;;;11.73;4.03;;;5.50;99.90;;;;;;5051262;28;20041;-71
2022/12/06 10:06:33;;;;;;;6.57;3.95;;;5.50;99.90;;;;;;5061973;28;20045;-70
2022/12/06 10:09:12;;;;;;;9.27;4.15;;;5.60;99.90;;;;;;5054681;28;20045;-71
2022/12/06 10:11:40;;;;;;;8.80;4.25;;;5.60;99.90;;;;;;5051572;28;20406;-71
2022/12/06 10:14:37;;;;;;;8.05;3.90;;;5.60;99.90;;;;;;5044761;28;20045;-71
2022/12/06 10:17:34;;;;;;;6.40;3.50;;;5.70;99.90;;;;;;5040463;28;20052;-70
2022/12/06 10:20:18;;;;;;;5.90;3.55;;;5.70;99.90;;;;;;5050360;28;20056;-70
2022/12/06 10:22:56;;;;;;;7.03;3.60;;;5.70;99.90;;;;;;5053346;28;20037;-70
2022/12/06 10:25:29;;;;;;;5.80;3.42;;;5.80;99.90;;;;;;5070291;28;20490;-70
2022/12/06 10:28:04;;;;;;;8.15;3.55;;;5.80;99.90;;;;;;5054658;28;20037;-70
2022/12/06 10:30:33;;;;;;;7.97;3.95;;;5.90;99.90;;;;;;5065148;28;20052;-70
2022/12/06 10:33:17;;;;;;;8.02;3.80;;;5.90;99.90;;;;;;5066592;28;20644;-70
2022/12/06 10:35:51;;;;;;;5.00;3.50;;;5.90;99.90;;;;;;5065059;28;20041;-70
2022/12/06 10:38:41;;;;;;;6.70;3.90;;;5.90;99.90;;;;;;5068297;28;20037;-70
2022/12/06 10:41:27;;;;;;;6.75;4.15;;;5.90;99.90;;;;;;5069855;28;20032;-70
2022/12/06 10:44:35;;;;;;;9.43;4.43;;;5.90;99.90;;;;;;5072150;28;20116;-70
2022/12/06 10:47:12;;;;;;;8.32;3.80;;;5.90;99.90;;;;;;5039910;28;20147;-70
2022/12/06 10:49:51;;;;;;;7.30;4.28;;;5.80;99.90;;;;;;5046675;28;20048;-70
2022/12/06 10:52:38;;;;;;;9.20;4.05;;;5.80;99.90;;;;;;5053454;28;20490;-70
2022/12/06 10:55:25;;;;;;;7.82;4.10;;;5.80;99.90;;;;;;5047545;28;20098;-70
2022/12/06 10:58:21;;;;;;;8.73;4.10;;;5.70;99.90;;;;;;5071423;28;20542;-70
2022/12/06 11:00:58;;;;;;;8.07;3.55;;;5.70;99.90;;;;;;5033617;28;20487;-70
2022/12/06 11:03:38;;;;;;;8.30;3.90;;;5.70;99.90;;;;;;5034439;28;20264;-71
2022/12/06 11:06:06;;;;;;;12.48;3.78;;;5.80;99.90;;;;;;5044383;28;20514;-70
2022/12/06 11:08:40;;;;;;;7.68;3.78;;;5.80;99.90;;;;;;5045835;28;20056;-71
2022/12/06 11:11:16;;;;;;;6.68;3.95;;;5.90;99.90;;;;;;5043130;28;20463;-71
2022/12/06 11:13:49;;;;;;;6.65;3.83;;;6.00;99.90;;;;;;5039729;28;20036;-71
2022/12/06 11:16:20;;;;;;;6.80;3.30;;;6.00;99.90;;;;;;5071138;28;20040;-72
2022/12/06 11:18:47;;;;;;;6.18;3.60;;;6.10;99.90;;;;;;5071938;28;20036;-70
2022/12/06 11:21:19;;;;;;;6.47;3.30;;;6.20;99.90;;;;;;5061526;28;20036;-71
2022/12/06 11:24:25;;;;;;;7.65;3.58;;;6.20;99.90;;;;;;5049748;28;20052;-70
2022/12/06 11:27:01;;;;;;;7.40;3.15;;;6.40;99.90;;;;;;5021254;28;20060;-71
2022/12/06 11:29:27;;;;;;;6.03;3.10;;;6.50;99.90;;;;;;5050907;28;20098;-70
2022/12/06 11:32:07;;;;;;;7.60;3.17;;;6.60;99.90;;;;;;5042325;28;20441;-71
2022/12/06 11:34:40;;;;;;;4.72;2.97;;;6.60;99.90;;;;;;5034051;28;20048;-70
2022/12/06 11:37:12;;;;;;;7.53;3.47;;;6.60;99.90;;;;;;5038259;28;20037;-70
2022/12/06 11:39:38;;;;;;;9.23;3.17;;;6.60;99.90;;;;;;5071099;28;20036;-71
2022/12/06 11:42:07;;;;;;;6.38;3.20;;;6.60;99.90;;;;;;5070121;28;20047;-71
2022/12/06 11:44:42;;;;;;;6.15;2.95;;;6.70;99.90;;;;;;5038145;28;20044;-71
2022/12/06 11:47:13;;;;;;;5.85;2.90;;;6.70;99.90;;;;;;5059571;28;20029;-70
2022/12/06 11:49:42;;;;;;;4.80;2.72;;;6.80;99.90;;;;;;5071177;28;20075;-72
2022/12/06 11:52:18;;;;;;;3.80;2.65;;;6.80;99.90;;;;;;5067484;28;20085;-71
2022/12/06 11:54:52;;;;;;;5.60;2.40;;;6.80;99.90;;;;;;5047529;28;20060;-71
2022/12/06 11:57:25;;;;;;;5.03;2.53;;;6.90;99.90;;;;;;5042674;28;20033;-71
2022/12/06 12:00:12;;;;;;;4.53;2.30;;;6.90;99.90;;;;;;5049711;28;20041;-72
2022/12/06 12:02:38;;;;;;;6.35;2.83;;;6.90;99.90;;;;;;5047058;28;20056;-72
2022/12/06 12:05:14;;;;;;;4.43;2.60;;;6.90;99.90;;;;;;5031808;28;20572;-72
2022/12/06 12:07:42;;;;;;;4.53;2.50;;;6.90;99.90;;;;;;5038048;28;20045;-72
2022/12/06 12:10:33;;;;;;;6.10;2.58;;;6.90;99.90;;;;;;5058405;28;20070;-72
2022/12/06 12:15:59;;;;;;;6.68;2.60;;;6.80;99.90;;;;;;5023750;28;20060;-72
2022/12/06 12:18:29;;;;;;;4.93;2.60;;;6.70;99.90;;;;;;5058271;28;20082;-73
2022/12/06 12:20:55;;;;;;;5.40;2.30;;;6.80;99.90;;;;;;5057675;28;20044;-72
2022/12/06 12:23:30;;;;;;;7.72;2.60;;;6.90;99.90;;;;;;5035814;28;20053;-72
2022/12/06 12:26:12;;;;;;;7.35;2.40;;;7.00;99.90;;;;;;5033207;28;20380;-72
2022/12/06 12:28:39;;;;;;;4.53;2.17;;;7.00;99.90;;;;;;5049809;28;20048;-72
2022/12/06 12:31:25;;;;;;;5.20;2.20;;;7.00;99.90;;;;;;5047784;28;20405;-72
2022/12/06 12:34:16;;;;;;;4.53;2.30;;;7.00;99.90;;;;;;5039831;28;20036;-72
2022/12/06 12:36:54;;;;;;;5.35;2.17;;;7.00;99.90;;;;;;5044866;28;20044;-72
2022/12/06 12:39:33;;;;;;;4.80;2.20;;;7.10;99.90;;;;;;5056234;28;20052;-72
2022/12/06 12:42:00;;;;;;;4.75;2.28;;;7.00;99.90;;;;;;5056103;28;20040;-72
2022/12/06 12:44:37;;;;;;;4.25;2.28;;;7.10;99.90;;;;;;5061635;28;20044;-72
2022/12/06 12:47:16;;;;;;;3.70;2.20;;;7.10;99.90;;;;;;5070298;28;20037;-73
2022/12/06 12:49:42;;;;;;;7.43;2.50;;;7.20;99.90;;;;;;5054576;28;20063;-73
2022/12/06 12:52:35;;;;;;;3.78;2.22;;;7.20;99.90;;;;;;5044763;28;20045;-73
2022/12/06 12:55:24;;;;;;;5.47;2.38;;;7.20;99.90;;;;;;5059854;28;20083;-73
2022/12/06 12:57:53;;;;;;;3.78;2.17;;;7.20;99.90;;;;;;5076441;28;20032;-73
2022/12/06 13:00:27;;;;;;;4.90;2.13;;;7.10;99.90;;;;;;5069366;28;20356;-72
2022/12/06 13:03:09;;;;;;;5.35;2.33;;;7.20;99.90;;;;;;5053282;28;20040;-73
2022/12/06 13:05:39;;;;;;;5.78;2.30;;;7.10;99.90;;;;;;5035966;28;20049;-72
2022/12/06 13:08:20;;;;;;;6.28;2.50;;;7.10;99.90;;;;;;5060286;28;20465;-70
2022/12/06 13:10:48;;;;;;;7.60;2.33;;;7.10;99.90;;;;;;5068190;28;20486;-70
2022/12/06 13:13:25;;;;;;;3.35;2.10;;;7.10;99.90;;;;;;5073770;28;20044;-73
2022/12/06 13:15:53;;;;;;;7.57;2.75;;;7.10;99.90;;;;;;5051974;28;20076;-72
2022/12/06 13:18:30;;;;;;;5.38;2.80;;;7.10;99.90;;;;;;5053014;28;20048;-70
2022/12/06 13:20:59;;;;;;;6.20;2.40;;;7.10;99.90;;;;;;5080320;28;20051;-71
2022/12/06 13:23:32;;;;;;;4.65;2.28;;;7.10;99.90;;;;;;5076060;28;20086;-71
2022/12/06 13:26:04;;;;;;;4.28;2.58;;;7.10;99.90;;;;;;5069115;28;20472;-72
2022/12/06 13:28:34;;;;;;;4.72;2.60;;;7.10;99.90;;;;;;5054805;28;20143;-68
2022/12/06 13:31:05;;;;;;;6.18;2.70;;;7.20;99.90;;;;;;5048633;28;20514;-70
2022/12/06 13:33:35;;;;;;;4.70;2.50;;;7.20;99.90;;;;;;5049567;28;20043;-70
2022/12/06 13:36:04;;;;;;;5.75;2.83;;;7.20;99.90;;;;;;5039157;28;20513;-72
2022/12/06 13:38:38;;;;;;;7.03;2.67;;;7.30;99.90;;;;;;5073467;28;20063;-71